Time;durP1;ratioP1;P1;durP2;ratioP2;P2;SDS_P1;SDS_P2;PMS_P1;PMS_P2;Temp;Humidity;BMP_temperature;BMP_pressure;BME280_temperature;BME280_humidity;BME280_pressure;Samples;Min_cycle;Max_cycle;Signal;HPM_P1;HPM_P2
2023/02/08 00:00:10;;;;;;;49.17;28.52;;;-2.10;99.90;;;;;;5032891;28;20417;-61
2023/02/08 00:02:37;;;;;;;46.17;27.65;;;-2.10;99.90;;;;;;5032481;28;20418;-61
2023/02/08 00:05:05;;;;;;;45.17;26.88;;;-2.10;99.90;;;;;;5033189;28;20423;-62
2023/02/08 00:07:32;;;;;;;44.42;28.13;;;-2.10;99.90;;;;;;5033048;28;20415;-62
2023/02/08 00:09:59;;;;;;;47.00;27.50;;;-2.10;99.90;;;;;;5032631;28;20783;-62
2023/02/08 00:12:27;;;;;;;43.65;27.63;;;-2.10;99.90;;;;;;5032181;28;20913;-62
2023/02/08 00:14:53;;;;;;;42.88;26.92;;;-2.10;99.90;;;;;;5032248;28;20475;-62
2023/02/08 00:17:20;;;;;;;42.88;26.95;;;-2.10;99.90;;;;;;5032155;28;20431;-62
2023/02/08 00:19:47;;;;;;;40.95;26.63;;;-2.10;99.90;;;;;;5032448;28;20415;-61
2023/02/08 00:22:15;;;;;;;46.42;25.65;;;-2.10;99.90;;;;;;5032068;28;20411;-61
2023/02/08 00:24:42;;;;;;;41.75;25.00;;;-2.10;99.90;;;;;;5032346;28;20854;-61
2023/02/08 00:27:09;;;;;;;42.17;25.17;;;-2.10;99.90;;;;;;5034946;28;20409;-61
2023/02/08 00:29:35;;;;;;;38.15;24.33;;;-2.10;99.90;;;;;;5036539;28;20415;-62
2023/02/08 00:32:02;;;;;;;37.28;23.10;;;-2.10;99.90;;;;;;5036502;28;20415;-62
2023/02/08 00:34:29;;;;;;;40.07;23.90;;;-2.10;99.90;;;;;;5036911;28;20415;-62
2023/02/08 00:36:56;;;;;;;37.65;23.67;;;-2.10;99.90;;;;;;5037988;28;20449;-62
2023/02/08 00:39:24;;;;;;;38.45;24.67;;;-2.10;99.90;;;;;;5047315;28;20419;-62
2023/02/08 00:41:51;;;;;;;36.47;23.77;;;-2.10;99.90;;;;;;5049195;28;20418;-61
2023/02/08 00:44:18;;;;;;;36.45;23.02;;;-2.10;99.90;;;;;;5049203;28;20498;-62
2023/02/08 00:46:44;;;;;;;36.78;22.75;;;-2.20;99.90;;;;;;5042965;28;20406;-62
2023/02/08 00:49:11;;;;;;;33.38;22.38;;;-2.20;99.90;;;;;;5046463;28;20411;-62
2023/02/08 00:51:38;;;;;;;39.80;22.80;;;-2.20;99.90;;;;;;5043616;28;20790;-62
2023/02/08 00:54:05;;;;;;;37.15;23.00;;;-2.20;99.90;;;;;;5036787;28;20411;-61
2023/02/08 00:56:33;;;;;;;35.60;22.20;;;-2.20;99.90;;;;;;5035440;28;20523;-61
2023/02/08 00:59:00;;;;;;;36.42;22.15;;;-2.20;99.90;;;;;;5035906;28;20418;-61
2023/02/08 01:01:26;;;;;;;33.45;22.50;;;-2.20;99.90;;;;;;5035437;28;20421;-62
2023/02/08 01:03:53;;;;;;;33.03;22.08;;;-2.20;99.90;;;;;;5036177;28;20410;-61
2023/02/08 01:06:20;;;;;;;33.00;21.42;;;-2.20;99.90;;;;;;5035327;28;20411;-61
2023/02/08 01:08:47;;;;;;;32.65;21.70;;;-2.20;99.90;;;;;;5035844;28;20411;-62
2023/02/08 01:11:17;;;;;;;32.70;21.42;;;-2.20;99.90;;;;;;5036328;28;20415;-61
2023/02/08 01:13:45;;;;;;;31.93;21.83;;;-2.20;99.90;;;;;;5035167;28;20586;-62
2023/02/08 01:16:13;;;;;;;31.35;22.27;;;-2.20;99.90;;;;;;5035762;28;20435;-60
2023/02/08 01:18:41;;;;;;;32.08;21.60;;;-2.20;99.90;;;;;;5046828;28;20413;-61
2023/02/08 01:21:10;;;;;;;32.88;21.85;;;-2.20;99.90;;;;;;5040745;28;20489;-61
2023/02/08 01:23:39;;;;;;;33.63;22.35;;;-2.20;99.90;;;;;;5035414;28;20775;-60
2023/02/08 01:26:07;;;;;;;35.92;23.60;;;-2.20;99.90;;;;;;5035117;28;20411;-62
2023/02/08 01:28:34;;;;;;;35.08;23.42;;;-2.20;99.90;;;;;;5035706;28;20419;-61
2023/02/08 01:31:05;;;;;;;36.10;24.30;;;-2.20;99.90;;;;;;5035662;28;20411;-61
2023/02/08 01:33:32;;;;;;;35.80;23.90;;;-2.30;99.90;;;;;;5034962;28;20962;-60
2023/02/08 01:35:59;;;;;;;44.25;26.55;;;-2.30;99.90;;;;;;5035172;28;20431;-61
2023/02/08 01:38:26;;;;;;;43.35;25.98;;;-2.30;99.90;;;;;;5034507;28;20418;-61
2023/02/08 01:40:52;;;;;;;37.05;24.33;;;-2.30;99.90;;;;;;5035422;28;20411;-61
2023/02/08 01:43:22;;;;;;;43.72;26.33;;;-2.40;99.90;;;;;;5035401;28;20426;-61
2023/02/08 01:45:49;;;;;;;43.58;25.88;;;-2.40;99.90;;;;;;5034581;28;20427;-62
2023/02/08 01:48:20;;;;;;;45.90;27.33;;;-2.40;99.90;;;;;;5035078;28;20442;-60
2023/02/08 01:50:52;;;;;;;42.67;26.77;;;-2.40;99.90;;;;;;5034554;28;20415;-61
2023/02/08 01:53:19;;;;;;;45.40;27.05;;;-2.40;99.90;;;;;;5035427;28;20419;-60
2023/02/08 01:55:50;;;;;;;46.35;27.35;;;-2.40;99.90;;;;;;5034833;28;20422;-61
2023/02/08 01:58:19;;;;;;;48.50;26.27;;;-2.50;99.90;;;;;;5035347;28;20445;-61
2023/02/08 02:00:46;;;;;;;46.33;27.08;;;-2.50;99.90;;;;;;5034529;28;20418;-61
2023/02/08 02:03:13;;;;;;;44.13;26.20;;;-2.40;99.90;;;;;;5034276;28;20429;-60
2023/02/08 02:05:44;;;;;;;46.77;27.43;;;-2.50;99.90;;;;;;5034208;28;20445;-62
2023/02/08 02:08:13;;;;;;;45.43;26.47;;;-2.50;99.90;;;;;;5035334;28;20505;-61
2023/02/08 02:10:41;;;;;;;41.93;25.90;;;-2.50;99.90;;;;;;5034382;28;20516;-62
2023/02/08 02:13:11;;;;;;;42.67;26.73;;;-2.50;99.90;;;;;;5034432;28;20426;-60
2023/02/08 02:15:38;;;;;;;42.00;25.60;;;-2.40;99.90;;;;;;5034412;28;20421;-62
2023/02/08 02:18:07;;;;;;;44.50;25.92;;;-2.50;99.90;;;;;;5033977;28;20450;-61
2023/02/08 02:20:45;;;;;;;42.33;24.10;;;-2.40;99.90;;;;;;5033900;28;20441;-61
2023/02/08 02:23:34;;;;;;;41.50;25.67;;;-2.50;99.90;;;;;;5034462;28;20415;-61
2023/02/08 02:26:51;;;;;;;39.88;25.25;;;-2.50;99.90;;;;;;5034384;28;20419;-61
2023/02/08 02:29:39;;;;;;;38.97;24.42;;;-2.50;99.90;;;;;;4954609;29;20606;-62
2023/02/08 02:32:26;;;;;;;44.00;24.73;;;-2.50;99.90;;;;;;5034302;28;20426;-61
2023/02/08 02:35:02;;;;;;;42.70;24.75;;;-2.60;99.90;;;;;;5034322;28;20879;-61
2023/02/08 02:37:42;;;;;;;40.38;24.00;;;-2.60;99.90;;;;;;5033714;28;20427;-60
2023/02/08 02:40:16;;;;;;;35.88;22.90;;;-2.60;99.90;;;;;;5034310;28;20417;-60
2023/02/08 02:45:45;;;;;;;38.08;24.08;;;-2.50;99.90;;;;;;5033809;28;20803;-60
2023/02/08 02:48:20;;;;;;;36.23;22.43;;;-2.50;99.90;;;;;;5034526;28;20771;-60
2023/02/08 02:50:51;;;;;;;42.10;24.10;;;-2.50;99.90;;;;;;5034102;28;20414;-62
2023/02/08 02:53:20;;;;;;;36.90;23.10;;;-2.50;99.90;;;;;;5034251;28;20867;-61
2023/02/08 02:55:53;;;;;;;39.22;23.92;;;-2.50;99.90;;;;;;5034021;28;20421;-60
2023/02/08 02:58:23;;;;;;;41.13;23.85;;;-2.50;99.90;;;;;;5043825;28;20867;-61
2023/02/08 03:00:53;;;;;;;41.92;25.52;;;-2.50;99.90;;;;;;5038922;28;20812;-61
2023/02/08 03:03:24;;;;;;;52.78;33.47;;;-2.50;99.90;;;;;;5034779;28;20501;-62
2023/02/08 03:05:53;;;;;;;67.20;41.45;;;-2.50;99.90;;;;;;5033961;28;20414;-61
2023/02/08 03:08:35;;;;;;;70.25;43.83;;;-2.50;99.90;;;;;;5033396;28;20775;-61
2023/02/08 03:11:15;;;;;;;69.50;43.42;;;-2.60;99.90;;;;;;5033727;28;20426;-62
2023/02/08 03:13:56;;;;;;;59.65;38.35;;;-2.60;99.90;;;;;;5033298;28;20415;-60
2023/02/08 03:16:31;;;;;;;54.13;34.00;;;-2.60;99.90;;;;;;5032884;28;20772;-62
2023/02/08 03:19:07;;;;;;;51.30;31.05;;;-2.60;99.90;;;;;;5033456;28;20427;-61
2023/02/08 03:21:41;;;;;;;41.88;28.55;;;-2.60;99.90;;;;;;5033878;28;20753;-61
2023/02/08 03:24:21;;;;;;;40.72;27.30;;;-2.70;99.90;;;;;;5033044;28;20423;-61
2023/02/08 03:26:54;;;;;;;42.90;25.92;;;-2.70;99.90;;;;;;5032385;28;20414;-61
2023/02/08 03:29:28;;;;;;;43.78;26.23;;;-2.70;99.90;;;;;;5033151;28;20791;-60
2023/02/08 03:31:59;;;;;;;37.73;24.63;;;-2.70;99.90;;;;;;5033233;28;20425;-60
2023/02/08 03:34:33;;;;;;;41.95;24.45;;;-2.70;99.90;;;;;;5032829;28;20441;-61
2023/02/08 03:37:06;;;;;;;39.47;23.90;;;-2.80;99.90;;;;;;5032808;28;20430;-61
2023/02/08 03:39:35;;;;;;;36.40;23.10;;;-2.80;99.90;;;;;;5032351;28;20894;-60
2023/02/08 03:42:08;;;;;;;38.37;23.13;;;-2.80;99.90;;;;;;5032465;28;20422;-60
2023/02/08 03:44:38;;;;;;;40.20;23.97;;;-2.80;99.90;;;;;;5033318;28;20421;-62
2023/02/08 03:47:09;;;;;;;37.22;22.45;;;-2.80;99.90;;;;;;5032478;28;20790;-61
2023/02/08 03:49:40;;;;;;;36.45;22.63;;;-2.80;99.90;;;;;;5032634;28;20433;-60
2023/02/08 03:52:10;;;;;;;35.63;21.60;;;-2.80;99.90;;;;;;5032297;28;20410;-61
2023/02/08 03:54:42;;;;;;;38.47;22.20;;;-2.80;99.90;;;;;;5032239;28;20415;-61
2023/02/08 03:57:14;;;;;;;35.40;21.27;;;-2.80;99.90;;;;;;5031910;28;20434;-60
2023/02/08 03:59:43;;;;;;;36.30;22.50;;;-2.90;99.90;;;;;;5032427;28;20473;-60
2023/02/08 04:02:13;;;;;;;33.53;21.05;;;-2.90;99.90;;;;;;5031948;28;20415;-61
2023/02/08 04:04:46;;;;;;;38.50;22.35;;;-2.90;99.90;;;;;;5032831;28;20417;-61
2023/02/08 04:07:13;;;;;;;36.28;22.30;;;-2.90;99.90;;;;;;5031930;28;20441;-61
2023/02/08 04:11:10;;;;;;;38.40;21.92;;;-2.90;99.90;;;;;;5089983;28;20844;-61
2023/02/08 04:13:37;;;;;;;36.05;22.15;;;-2.90;99.90;;;;;;5089579;28;20417;-61
2023/02/08 04:16:04;;;;;;;36.72;23.38;;;-2.90;99.90;;;;;;5089315;28;20411;-61
2023/02/08 04:18:31;;;;;;;35.07;21.70;;;-2.90;99.90;;;;;;5089640;28;20494;-62
2023/02/08 04:20:58;;;;;;;34.47;22.10;;;-2.90;99.90;;;;;;5089356;28;20445;-61
2023/02/08 04:23:25;;;;;;;35.00;21.03;;;-3.00;99.90;;;;;;5089440;28;20417;-62
2023/02/08 04:25:51;;;;;;;35.85;22.00;;;-3.00;99.90;;;;;;5089406;28;20414;-62
2023/02/08 04:28:19;;;;;;;37.83;21.77;;;-3.00;99.90;;;;;;5089447;28;20520;-61
2023/02/08 04:30:46;;;;;;;35.42;21.95;;;-3.00;99.90;;;;;;5089445;28;20437;-60
2023/02/08 04:33:13;;;;;;;37.00;23.35;;;-3.00;99.90;;;;;;5089665;28;20411;-61
2023/02/08 04:35:40;;;;;;;37.30;22.25;;;-3.00;99.90;;;;;;5099803;28;20418;-60
2023/02/08 04:38:07;;;;;;;34.55;21.55;;;-3.00;99.90;;;;;;5094451;28;20411;-61
2023/02/08 04:40:34;;;;;;;34.13;21.48;;;-3.10;99.90;;;;;;5089164;28;20407;-59
2023/02/08 04:43:01;;;;;;;38.50;24.10;;;-3.00;99.90;;;;;;5091364;28;20418;-60
2023/02/08 04:45:31;;;;;;;32.30;21.65;;;-3.10;99.90;;;;;;5113145;22;20431;-63
2023/02/08 04:47:58;;;;;;;34.75;22.17;;;-3.00;99.90;;;;;;5089983;28;20470;-63
2023/02/08 04:50:25;;;;;;;38.37;23.50;;;-3.10;99.90;;;;;;5088901;28;20912;-64
2023/02/08 04:52:51;;;;;;;38.25;22.27;;;-3.10;99.90;;;;;;5089576;28;20411;-64
2023/02/08 04:55:18;;;;;;;36.17;22.58;;;-3.00;99.90;;;;;;5089604;28;20413;-64
2023/02/08 04:57:45;;;;;;;37.70;23.80;;;-3.10;99.90;;;;;;5089120;28;20421;-63
2023/02/08 05:00:13;;;;;;;35.78;21.80;;;-3.10;99.90;;;;;;5088803;28;20421;-62
2023/02/08 05:02:41;;;;;;;36.67;22.90;;;-3.10;99.90;;;;;;5089754;28;20418;-62
2023/02/08 05:05:08;;;;;;;33.33;21.48;;;-3.10;99.90;;;;;;5089259;28;20407;-62
2023/02/08 05:07:35;;;;;;;36.75;22.30;;;-3.10;99.90;;;;;;5092143;28;20522;-63
2023/02/08 05:10:02;;;;;;;38.22;23.95;;;-3.10;99.90;;;;;;5093387;28;20423;-63
2023/02/08 05:12:30;;;;;;;42.92;23.77;;;-3.20;99.90;;;;;;5092577;28;20922;-63
2023/02/08 05:14:57;;;;;;;36.70;22.85;;;-3.20;99.90;;;;;;5094798;28;20418;-64
2023/02/08 05:17:23;;;;;;;38.57;23.50;;;-3.20;99.90;;;;;;5094703;28;20433;-63
2023/02/08 05:19:52;;;;;;;37.08;22.77;;;-3.30;99.90;;;;;;5093855;28;20510;-63
2023/02/08 05:22:18;;;;;;;36.33;22.40;;;-3.30;99.90;;;;;;5080508;28;20507;-64
2023/02/08 05:24:45;;;;;;;35.57;21.67;;;-3.30;99.90;;;;;;5074813;28;20857;-63
2023/02/08 05:27:12;;;;;;;38.33;21.67;;;-3.30;99.90;;;;;;5073681;28;20428;-63
2023/02/08 05:29:39;;;;;;;36.33;22.23;;;-3.30;99.90;;;;;;5075602;28;20435;-62
2023/02/08 05:32:06;;;;;;;38.97;22.95;;;-3.30;99.90;;;;;;5074148;28;20911;-63
2023/02/08 05:34:32;;;;;;;35.45;21.67;;;-3.30;99.90;;;;;;5074556;28;20434;-66
2023/02/08 05:37:01;;;;;;;38.28;23.02;;;-3.30;99.90;;;;;;5074997;28;20982;-62
2023/02/08 05:39:27;;;;;;;33.10;22.15;;;-3.30;99.90;;;;;;5073829;28;20431;-64
2023/02/08 05:41:54;;;;;;;36.58;21.98;;;-3.30;99.90;;;;;;5076058;28;20438;-63
2023/02/08 05:44:21;;;;;;;33.72;20.98;;;-3.30;99.90;;;;;;5079255;28;20431;-62
2023/02/08 05:46:48;;;;;;;37.92;22.88;;;-3.30;99.90;;;;;;5079780;28;20431;-63
2023/02/08 05:49:15;;;;;;;35.63;20.85;;;-3.30;99.90;;;;;;5079977;28;20432;-62
2023/02/08 05:51:42;;;;;;;32.95;20.42;;;-3.30;99.90;;;;;;5078985;28;20919;-63
2023/02/08 05:54:11;;;;;;;35.03;21.80;;;-3.30;99.90;;;;;;5079501;28;20470;-63
2023/02/08 05:56:37;;;;;;;34.55;20.55;;;-3.30;99.90;;;;;;5078998;28;20431;-62
2023/02/08 05:59:04;;;;;;;34.05;21.88;;;-3.40;99.90;;;;;;5078986;28;20411;-63
2023/02/08 06:01:31;;;;;;;37.37;22.43;;;-3.30;99.90;;;;;;5074978;28;20449;-64
2023/02/08 06:03:58;;;;;;;37.67;23.05;;;-3.30;99.90;;;;;;5078060;28;20427;-63
2023/02/08 06:06:25;;;;;;;38.00;22.00;;;-3.40;99.90;;;;;;5075190;28;20511;-62
2023/02/08 06:08:52;;;;;;;39.30;23.00;;;-3.40;99.90;;;;;;5074904;28;20514;-63
2023/02/08 06:11:21;;;;;;;36.08;23.05;;;-3.40;99.90;;;;;;5074438;28;20424;-63
2023/02/08 06:13:48;;;;;;;41.83;24.00;;;-3.40;99.90;;;;;;5074130;28;20431;-63
2023/02/08 06:16:15;;;;;;;38.83;23.60;;;-3.40;99.90;;;;;;5073316;28;20430;-63
2023/02/08 06:18:43;;;;;;;39.25;24.27;;;-3.40;99.90;;;;;;5074456;28;20434;-62
2023/02/08 06:21:11;;;;;;;40.50;22.98;;;-3.40;99.90;;;;;;5074965;28;20907;-64
2023/02/08 06:23:38;;;;;;;38.35;24.15;;;-3.40;99.90;;;;;;5073579;28;20447;-63
2023/02/08 06:26:05;;;;;;;44.23;25.17;;;-3.50;99.90;;;;;;5074925;28;20496;-63
2023/02/08 06:28:33;;;;;;;38.53;23.70;;;-3.50;99.90;;;;;;5067398;28;20510;-64
2023/02/08 06:31:00;;;;;;;41.93;24.67;;;-3.50;99.90;;;;;;5072146;28;20519;-64
2023/02/08 06:33:27;;;;;;;42.33;24.52;;;-3.50;99.90;;;;;;5067465;28;20431;-64
2023/02/08 06:35:54;;;;;;;41.85;23.40;;;-3.50;99.90;;;;;;5070409;28;20427;-63
2023/02/08 06:38:22;;;;;;;40.67;23.38;;;-3.50;99.90;;;;;;5072545;28;20458;-64
2023/02/08 06:40:49;;;;;;;44.28;24.52;;;-3.50;99.90;;;;;;5070811;28;20427;-63
2023/02/08 06:43:17;;;;;;;37.80;23.07;;;-3.50;99.90;;;;;;5066836;28;20440;-64
2023/02/08 06:45:46;;;;;;;39.28;24.13;;;-3.50;99.90;;;;;;5066677;28;20905;-63
2023/02/08 06:48:13;;;;;;;45.75;25.20;;;-3.50;99.90;;;;;;5059933;28;20433;-65
2023/02/08 06:50:40;;;;;;;41.80;23.88;;;-3.40;99.90;;;;;;5070798;28;20427;-63
2023/02/08 06:53:07;;;;;;;43.65;24.52;;;-3.40;99.90;;;;;;5069859;28;20431;-62
2023/02/08 06:55:34;;;;;;;37.95;22.75;;;-3.40;99.90;;;;;;5064472;28;20906;-64
2023/02/08 06:58:00;;;;;;;42.45;24.85;;;-3.40;99.90;;;;;;5073241;28;20419;-64
2023/02/08 07:00:27;;;;;;;42.35;23.30;;;-3.40;99.90;;;;;;5073559;28;20438;-64
2023/02/08 07:02:55;;;;;;;42.35;25.02;;;-3.40;99.90;;;;;;5069603;28;20435;-64
2023/02/08 07:05:22;;;;;;;45.92;26.05;;;-3.40;99.90;;;;;;5069670;28;20435;-63
2023/02/08 07:07:49;;;;;;;44.00;25.10;;;-3.40;99.90;;;;;;5069037;28;20439;-63
2023/02/08 07:10:16;;;;;;;46.03;24.67;;;-3.40;99.90;;;;;;5063914;28;20431;-63
2023/02/08 07:12:43;;;;;;;47.03;25.77;;;-3.30;99.90;;;;;;5063675;28;20432;-62
2023/02/08 07:15:12;;;;;;;43.33;24.83;;;-3.30;99.90;;;;;;5071502;28;20435;-62
2023/02/08 07:17:38;;;;;;;44.75;24.70;;;-3.30;99.90;;;;;;5056316;28;20425;-62
2023/02/08 07:20:07;;;;;;;44.05;25.20;;;-3.30;99.90;;;;;;5061595;28;20744;-63
2023/02/08 07:22:34;;;;;;;45.83;24.85;;;-3.30;99.90;;;;;;5070506;28;20435;-64
2023/02/08 07:25:01;;;;;;;44.63;25.05;;;-3.30;99.90;;;;;;5059529;28;20758;-62
2023/02/08 07:27:28;;;;;;;44.72;25.85;;;-3.20;99.90;;;;;;5061128;28;20438;-63
2023/02/08 07:29:55;;;;;;;43.80;25.75;;;-3.20;99.90;;;;;;5072602;28;20415;-64
2023/02/08 07:32:22;;;;;;;41.25;25.48;;;-3.00;99.90;;;;;;5071549;28;20435;-64
2023/02/08 07:34:48;;;;;;;40.25;24.50;;;-2.70;99.90;;;;;;5072812;28;20499;-64
2023/02/08 07:37:17;;;;;;;45.60;26.27;;;-2.50;99.90;;;;;;5071660;28;20400;-65
2023/02/08 07:39:43;;;;;;;38.20;23.63;;;-2.30;99.90;;;;;;5073149;28;20408;-64
2023/02/08 07:42:11;;;;;;;40.40;23.27;;;-2.10;99.90;;;;;;5071448;28;20403;-63
2023/02/08 07:44:38;;;;;;;38.80;23.53;;;-2.00;99.90;;;;;;5072125;28;21263;-63
2023/02/08 07:47:05;;;;;;;37.50;23.10;;;-1.90;99.90;;;;;;5072138;28;20422;-63
2023/02/08 07:49:32;;;;;;;35.78;23.45;;;-1.80;99.90;;;;;;5066257;28;20469;-63
2023/02/08 07:51:59;;;;;;;41.20;23.52;;;-1.50;99.90;;;;;;5064040;28;20428;-64
2023/02/08 07:54:28;;;;;;;33.50;21.00;;;-1.40;99.90;;;;;;5071531;28;20418;-65
2023/02/08 07:56:55;;;;;;;39.13;22.75;;;-1.30;99.90;;;;;;5052750;28;20420;-64
2023/02/08 07:59:22;;;;;;;38.22;22.45;;;-1.30;99.90;;;;;;5052379;28;20421;-64
2023/02/08 08:01:48;;;;;;;37.05;21.98;;;-1.30;99.90;;;;;;5054550;28;20432;-63
2023/02/08 08:04:15;;;;;;;37.58;22.65;;;-1.30;99.90;;;;;;5070779;28;20408;-65
2023/02/08 08:06:42;;;;;;;36.63;21.98;;;-1.30;99.90;;;;;;5072120;28;20412;-64
2023/02/08 08:09:09;;;;;;;35.10;21.67;;;-1.30;99.90;;;;;;5072343;28;20411;-63
2023/02/08 08:11:37;;;;;;;43.95;22.80;;;-1.20;99.90;;;;;;5072463;28;20420;-64
2023/02/08 08:14:03;;;;;;;52.50;22.88;;;-1.20;99.90;;;;;;5072143;28;20412;-63
2023/02/08 08:16:30;;;;;;;73.77;25.23;;;-1.20;99.90;;;;;;5072007;28;20890;-63
2023/02/08 08:18:57;;;;;;;39.97;22.17;;;-1.10;99.90;;;;;;5071565;28;20423;-63
2023/02/08 08:21:24;;;;;;;42.45;22.45;;;-1.10;99.90;;;;;;5071507;28;20403;-64
2023/02/08 08:23:50;;;;;;;38.90;20.60;;;-1.00;99.90;;;;;;5070750;28;20432;-64
2023/02/08 08:26:19;;;;;;;40.67;21.30;;;-0.90;99.90;;;;;;5069640;28;20431;-62
2023/02/08 08:28:48;;;;;;;36.63;20.00;;;-0.70;99.90;;;;;;5071567;28;20603;-62
2023/02/08 08:31:16;;;;;;;35.90;21.00;;;-0.50;99.90;;;;;;5070446;28;20420;-64
2023/02/08 08:33:43;;;;;;;34.28;19.48;;;-0.30;99.90;;;;;;5071556;28;20419;-64
2023/02/08 08:36:10;;;;;;;55.80;22.83;;;-0.10;99.90;;;;;;5063110;28;20518;-66
2023/02/08 08:38:37;;;;;;;30.60;20.45;;;0.10;99.90;;;;;;5071661;28;20404;-64
2023/02/08 08:41:07;;;;;;;37.05;20.23;;;0.30;99.90;;;;;;5071434;28;20460;-63
2023/02/08 08:43:34;;;;;;;39.58;23.35;;;0.40;99.90;;;;;;5071424;28;20902;-63
2023/02/08 08:46:02;;;;;;;36.75;20.45;;;0.50;99.90;;;;;;5071309;28;20791;-64
2023/02/08 08:48:29;;;;;;;32.75;19.48;;;0.50;99.90;;;;;;5071532;28;20438;-62
2023/02/08 08:50:56;;;;;;;32.72;19.95;;;0.50;99.90;;;;;;5072415;28;20441;-62
2023/02/08 08:53:23;;;;;;;31.35;19.48;;;0.50;99.90;;;;;;5072132;28;20411;-63
2023/02/08 08:55:49;;;;;;;33.55;18.90;;;0.50;99.90;;;;;;5072432;28;20487;-62
2023/02/08 08:58:16;;;;;;;28.92;18.95;;;0.50;99.90;;;;;;5075007;28;20888;-63
2023/02/08 09:00:43;;;;;;;32.90;19.10;;;0.50;99.60;;;;;;5074479;28;20450;-62
2023/02/08 09:03:11;;;;;;;31.52;19.63;;;0.50;99.30;;;;;;5063188;28;20427;-63
2023/02/08 09:05:38;;;;;;;26.15;17.85;;;0.50;99.20;;;;;;5055089;28;20424;-64
2023/02/08 09:08:05;;;;;;;28.37;18.03;;;0.60;98.80;;;;;;5074438;28;20422;-63
2023/02/08 09:10:32;;;;;;;32.55;17.65;;;0.60;98.30;;;;;;5075090;28;20727;-66
2023/02/08 09:12:59;;;;;;;27.10;16.55;;;0.70;97.90;;;;;;5074762;28;20964;-65
2023/02/08 09:15:25;;;;;;;35.00;18.40;;;0.80;97.50;;;;;;5075116;28;20407;-65
2023/02/08 09:17:52;;;;;;;41.47;18.20;;;0.90;96.80;;;;;;5075970;28;20408;-65
2023/02/08 09:20:21;;;;;;;33.20;16.75;;;1.00;96.30;;;;;;5074929;28;20495;-65
2023/02/08 09:22:48;;;;;;;62.25;21.23;;;1.00;95.40;;;;;;5061214;28;20421;-64
2023/02/08 09:25:15;;;;;;;32.15;17.88;;;1.10;94.50;;;;;;5074019;28;20489;-64
2023/02/08 09:27:42;;;;;;;25.27;16.48;;;1.20;94.10;;;;;;5074196;28;20420;-65
2023/02/08 09:30:10;;;;;;;24.27;15.10;;;1.20;93.20;;;;;;5073593;28;20436;-65
2023/02/08 09:32:38;;;;;;;29.33;16.48;;;1.30;92.50;;;;;;5074053;28;20434;-63
2023/02/08 09:35:06;;;;;;;28.15;16.38;;;1.40;91.20;;;;;;5073520;28;20454;-63
2023/02/08 09:37:34;;;;;;;26.92;15.98;;;1.40;90.20;;;;;;5060661;28;20429;-65
2023/02/08 09:40:01;;;;;;;24.27;15.63;;;1.50;89.20;;;;;;5054174;28;20511;-66
2023/02/08 09:42:41;;;;;;;23.40;16.23;;;1.70;87.50;;;;;;5054242;28;20781;-65
2023/02/08 09:45:29;;;;;;;22.05;14.88;;;1.80;87.20;;;;;;5054120;28;20413;-65
2023/02/08 09:48:03;;;;;;;25.10;14.75;;;1.90;86.80;;;;;;5054203;28;20784;-64
2023/02/08 09:50:33;;;;;;;23.23;14.60;;;2.00;85.70;;;;;;5054186;28;20450;-64
2023/02/08 09:53:09;;;;;;;21.10;13.60;;;2.10;84.00;;;;;;5054119;28;20401;-65
2023/02/08 09:55:40;;;;;;;20.50;13.20;;;2.20;81.90;;;;;;5053975;28;20416;-63
2023/02/08 09:58:19;;;;;;;21.63;14.05;;;2.30;79.40;;;;;;5054545;28;20413;-64
2023/02/08 10:00:49;;;;;;;20.27;13.13;;;2.40;78.30;;;;;;5054407;28;20410;-65
2023/02/08 10:03:25;;;;;;;19.92;12.93;;;2.40;77.90;;;;;;5053983;28;20782;-64
2023/02/08 10:05:52;;;;;;;22.52;13.48;;;2.50;76.80;;;;;;5054074;28;20418;-63
2023/02/08 10:08:20;;;;;;;21.25;14.00;;;2.60;76.00;;;;;;5072349;28;20919;-63
2023/02/08 10:10:53;;;;;;;24.02;14.55;;;2.70;74.90;;;;;;5074980;28;20418;-63
2023/02/08 10:13:41;;;;;;;27.08;14.38;;;2.70;74.20;;;;;;5075551;28;20433;-63
2023/02/08 10:16:18;;;;;;;24.17;13.70;;;2.80;73.40;;;;;;5075553;28;20412;-63
2023/02/08 10:18:50;;;;;;;21.60;13.57;;;2.90;72.30;;;;;;5074545;28;20527;-63
2023/02/08 10:21:41;;;;;;;18.92;12.95;;;2.90;70.90;;;;;;5075011;28;20421;-63
2023/02/08 10:24:36;;;;;;;27.75;12.88;;;3.00;70.20;;;;;;5075441;28;20435;-64
2023/02/08 10:27:14;;;;;;;18.77;11.30;;;3.10;70.00;;;;;;5076660;28;20200;-64
2023/02/08 10:30:07;;;;;;;22.92;11.85;;;3.20;70.10;;;;;;5076055;28;20192;-64
2023/02/08 10:32:49;;;;;;;21.30;12.57;;;3.30;69.80;;;;;;5073901;28;20961;-61
2023/02/08 10:35:25;;;;;;;38.17;12.60;;;3.40;69.00;;;;;;5074893;28;20231;-63
2023/02/08 10:37:53;;;;;;;27.00;13.57;;;3.40;68.90;;;;;;5074824;28;20670;-62
2023/02/08 10:40:30;;;;;;;22.05;10.52;;;3.50;68.70;;;;;;5067406;28;20585;-62
2023/02/08 10:43:05;;;;;;;21.02;10.30;;;3.60;68.40;;;;;;5075186;28;20199;-63
2023/02/08 10:45:40;;;;;;;20.33;11.15;;;3.60;68.20;;;;;;5074090;28;20260;-62
2023/02/08 10:48:15;;;;;;;19.58;11.52;;;3.70;67.70;;;;;;5074684;28;20199;-62
2023/02/08 10:50:46;;;;;;;16.80;11.55;;;3.70;67.80;;;;;;5072102;28;20605;-64
2023/02/08 10:53:15;;;;;;;22.27;11.35;;;3.80;66.40;;;;;;5074085;28;20185;-63
2023/02/08 10:55:45;;;;;;;20.65;10.45;;;3.80;65.90;;;;;;5074886;28;20221;-64
2023/02/08 10:58:16;;;;;;;18.65;11.13;;;3.80;65.80;;;;;;5074766;28;20205;-64
2023/02/08 11:00:44;;;;;;;18.35;11.32;;;3.80;65.60;;;;;;5074257;28;20185;-62
2023/02/08 11:03:17;;;;;;;23.95;11.00;;;3.80;65.40;;;;;;5074715;28;20199;-62
2023/02/08 11:05:45;;;;;;;27.05;11.75;;;3.90;65.40;;;;;;5075902;28;20232;-62
2023/02/08 11:08:16;;;;;;;42.97;12.63;;;3.90;65.20;;;;;;5074355;28;20204;-63
2023/02/08 11:10:55;;;;;;;24.77;12.38;;;4.00;64.90;;;;;;5073946;28;20633;-63
2023/02/08 11:13:22;;;;;;;21.13;12.25;;;4.10;64.70;;;;;;5074940;28;20185;-66
2023/02/08 11:15:51;;;;;;;27.60;13.05;;;4.20;64.50;;;;;;5074584;28;20606;-63
2023/02/08 11:18:22;;;;;;;31.17;14.10;;;4.20;64.40;;;;;;5073405;28;20292;-65
2023/02/08 11:20:52;;;;;;;42.55;14.02;;;4.20;64.50;;;;;;5074260;28;20205;-64
2023/02/08 11:23:25;;;;;;;17.42;12.35;;;4.20;64.70;;;;;;5073756;28;20323;-64
2023/02/08 11:25:55;;;;;;;22.27;13.25;;;4.20;64.70;;;;;;5074193;28;20231;-64
2023/02/08 11:28:29;;;;;;;24.98;13.80;;;4.20;64.40;;;;;;5074987;28;20638;-64
2023/02/08 11:31:00;;;;;;;22.77;12.95;;;4.20;64.30;;;;;;5076370;28;20189;-64
2023/02/08 11:33:29;;;;;;;21.33;12.57;;;4.20;64.20;;;;;;5074090;28;20551;-63
2023/02/08 11:36:00;;;;;;;44.97;15.63;;;4.20;64.70;;;;;;5073860;28;20231;-64
2023/02/08 11:38:28;;;;;;;79.88;18.30;;;4.20;64.10;;;;;;5073524;28;20188;-63
2023/02/08 11:40:59;;;;;;;35.50;13.80;;;4.30;64.30;;;;;;5073727;28;20291;-64
2023/02/08 11:43:29;;;;;;;61.30;17.38;;;4.40;64.10;;;;;;5073858;28;20181;-63
2023/02/08 11:45:57;;;;;;;39.83;14.98;;;4.40;63.50;;;;;;5073089;28;20236;-64
2023/02/08 11:48:30;;;;;;;41.58;16.98;;;4.50;63.10;;;;;;5074107;28;20209;-64
2023/02/08 11:51:00;;;;;;;22.55;13.57;;;4.50;62.90;;;;;;5074820;28;20207;-63
2023/02/08 11:53:32;;;;;;;17.20;10.80;;;4.60;62.80;;;;;;5074894;28;20217;-63
2023/02/08 11:56:06;;;;;;;24.80;11.50;;;4.70;62.50;;;;;;5075076;28;20225;-64
2023/02/08 11:58:34;;;;;;;19.85;12.65;;;4.70;61.80;;;;;;5076386;28;20188;-64
2023/02/08 12:01:03;;;;;;;90.22;20.45;;;4.60;61.50;;;;;;5074583;28;20207;-63
2023/02/08 12:03:33;;;;;;;38.97;15.07;;;4.60;61.70;;;;;;5075731;28;20204;-63
2023/02/08 12:06:22;;;;;;;45.38;15.27;;;4.70;61.80;;;;;;5074203;28;20221;-64
2023/02/08 12:09:01;;;;;;;25.05;14.40;;;4.70;61.90;;;;;;5073781;28;20538;-64
2023/02/08 12:11:36;;;;;;;18.20;12.05;;;4.80;62.00;;;;;;5073680;28;20192;-62
2023/02/08 12:14:21;;;;;;;20.00;13.25;;;4.90;62.00;;;;;;5073738;28;20181;-64
2023/02/08 12:17:11;;;;;;;25.80;13.40;;;4.90;62.00;;;;;;5073593;28;20204;-63
2023/02/08 12:20:06;;;;;;;17.98;11.23;;;4.90;62.10;;;;;;5073866;28;20185;-63
2023/02/08 12:22:38;;;;;;;24.10;15.25;;;4.90;61.90;;;;;;5073659;28;20637;-63
2023/02/08 12:25:20;;;;;;;18.45;11.30;;;4.90;61.40;;;;;;5073504;28;20231;-64
2023/02/08 12:27:57;;;;;;;15.75;10.30;;;4.80;61.00;;;;;;5073541;28;20212;-64
2023/02/08 12:30:32;;;;;;;22.52;11.20;;;4.80;60.80;;;;;;5073967;28;20203;-64
2023/02/08 12:33:35;;;;;;;20.17;11.95;;;4.80;60.80;;;;;;5077745;28;20222;-64
2023/02/08 12:36:19;;;;;;;18.17;11.55;;;4.80;60.50;;;;;;5030483;28;20224;-64
2023/02/08 12:42:11;;;;;;;20.92;10.45;;;4.80;59.80;;;;;;5077325;28;20199;-64
2023/02/08 12:44:54;;;;;;;18.50;11.07;;;4.80;59.40;;;;;;5077562;28;20232;-64
2023/02/08 12:47:34;;;;;;;23.13;10.60;;;4.80;59.30;;;;;;5077528;28;20185;-64
2023/02/08 12:50:10;;;;;;;25.80;12.63;;;4.80;59.20;;;;;;5077559;28;20271;-64
2023/02/08 12:52:41;;;;;;;35.40;12.45;;;4.80;59.30;;;;;;5077270;28;20213;-65